sensor_id;sensor_type;location;lat;lon;timestamp;temperature;humidity
31819;DHT22;18384;48.860;9.188;2022-07-29T00:00:59;22.20;93.40
31819;DHT22;18384;48.860;9.188;2022-07-29T00:03:26;22.20;93.50
31819;DHT22;18384;48.860;9.188;2022-07-29T00:05:52;22.10;93.40
31819;DHT22;18384;48.860;9.188;2022-07-29T00:08:18;22.10;93.60
31819;DHT22;18384;48.860;9.188;2022-07-29T00:10:45;22.10;93.60
31819;DHT22;18384;48.860;9.188;2022-07-29T00:13:12;22.10;93.60
31819;DHT22;18384;48.860;9.188;2022-07-29T00:15:38;22.10;93.60
31819;DHT22;18384;48.860;9.188;2022-07-29T00:18:04;22.00;93.80
31819;DHT22;18384;48.860;9.188;2022-07-29T00:20:30;22.00;93.80
31819;DHT22;18384;48.860;9.188;2022-07-29T00:22:57;22.00;93.90
31819;DHT22;18384;48.860;9.188;2022-07-29T00:25:23;22.00;94.00
31819;DHT22;18384;48.860;9.188;2022-07-29T00:27:49;21.90;94.00
31819;DHT22;18384;48.860;9.188;2022-07-29T00:30:15;21.90;94.00
31819;DHT22;18384;48.860;9.188;2022-07-29T00:32:41;21.90;94.20
31819;DHT22;18384;48.860;9.188;2022-07-29T00:35:08;21.90;94.20
31819;DHT22;18384;48.860;9.188;2022-07-29T00:37:53;21.90;94.20
31819;DHT22;18384;48.860;9.188;2022-07-29T00:40:19;21.90;94.20
31819;DHT22;18384;48.860;9.188;2022-07-29T00:42:47;21.90;94.30
31819;DHT22;18384;48.860;9.188;2022-07-29T00:45:15;21.80;94.40
31819;DHT22;18384;48.860;9.188;2022-07-29T00:47:41;22.70;94.60
31819;DHT22;18384;48.860;9.188;2022-07-29T00:50:09;21.80;94.30
31819;DHT22;18384;48.860;9.188;2022-07-29T00:52:38;21.80;94.50
31819;DHT22;18384;48.860;9.188;2022-07-29T00:55:08;21.70;94.50
31819;DHT22;18384;48.860;9.188;2022-07-29T00:57:40;21.70;94.50
31819;DHT22;18384;48.860;9.188;2022-07-29T01:00:09;21.70;94.60
31819;DHT22;18384;48.860;9.188;2022-07-29T01:02:37;21.70;94.70
31819;DHT22;18384;48.860;9.188;2022-07-29T01:05:04;21.70;94.70
31819;DHT22;18384;48.860;9.188;2022-07-29T01:07:35;21.60;94.80
31819;DHT22;18384;48.860;9.188;2022-07-29T01:10:06;21.60;94.80
31819;DHT22;18384;48.860;9.188;2022-07-29T01:12:34;21.60;94.90
31819;DHT22;18384;48.860;9.188;2022-07-29T01:15:03;21.60;94.90
31819;DHT22;18384;48.860;9.188;2022-07-29T01:17:45;21.60;94.90
31819;DHT22;18384;48.860;9.188;2022-07-29T01:30:01;21.60;94.80
31819;DHT22;18384;48.860;9.188;2022-07-29T01:32:31;21.40;94.70
31819;DHT22;18384;48.860;9.188;2022-07-29T01:35:26;21.40;94.80
31819;DHT22;18384;48.860;9.188;2022-07-29T01:38:22;21.40;94.70
31819;DHT22;18384;48.860;9.188;2022-07-29T01:41:06;21.40;94.80
31819;DHT22;18384;48.860;9.188;2022-07-29T01:43:44;21.40;94.80
31819;DHT22;18384;48.860;9.188;2022-07-29T01:48:10;21.40;94.90
31819;DHT22;18384;48.860;9.188;2022-07-29T01:51:33;21.40;95.00
31819;DHT22;18384;48.860;9.188;2022-07-29T01:54:14;21.30;95.00
31819;DHT22;18384;48.860;9.188;2022-07-29T01:56:48;21.30;95.00
31819;DHT22;18384;48.860;9.188;2022-07-29T01:59:16;21.30;95.10
31819;DHT22;18384;48.860;9.188;2022-07-29T02:01:45;21.50;95.20
31819;DHT22;18384;48.860;9.188;2022-07-29T02:04:13;21.30;95.30
31819;DHT22;18384;48.860;9.188;2022-07-29T02:06:41;21.40;95.30
31819;DHT22;18384;48.860;9.188;2022-07-29T02:09:09;21.30;95.30
31819;DHT22;18384;48.860;9.188;2022-07-29T02:11:37;21.20;95.30
31819;DHT22;18384;48.860;9.188;2022-07-29T02:14:05;21.20;95.30
31819;DHT22;18384;48.860;9.188;2022-07-29T02:16:33;22.80;95.80
31819;DHT22;18384;48.860;9.188;2022-07-29T02:19:03;21.20;95.60
31819;DHT22;18384;48.860;9.188;2022-07-29T02:21:31;21.20;95.50
31819;DHT22;18384;48.860;9.188;2022-07-29T02:24:01;21.20;95.60
31819;DHT22;18384;48.860;9.188;2022-07-29T02:26:29;21.20;95.60
31819;DHT22;18384;48.860;9.188;2022-07-29T02:28:57;21.70;95.80
31819;DHT22;18384;48.860;9.188;2022-07-29T02:31:28;21.80;95.80
31819;DHT22;18384;48.860;9.188;2022-07-29T02:34:00;21.20;95.80
31819;DHT22;18384;48.860;9.188;2022-07-29T02:36:28;21.00;95.80
31819;DHT22;18384;48.860;9.188;2022-07-29T02:38:56;21.10;95.80
31819;DHT22;18384;48.860;9.188;2022-07-29T02:41:33;21.00;95.70
31819;DHT22;18384;48.860;9.188;2022-07-29T02:44:09;21.00;95.70
31819;DHT22;18384;48.860;9.188;2022-07-29T02:46:48;21.10;95.70
31819;DHT22;18384;48.860;9.188;2022-07-29T02:56:10;20.90;95.80
31819;DHT22;18384;48.860;9.188;2022-07-29T02:58:55;20.90;95.80
31819;DHT22;18384;48.860;9.188;2022-07-29T03:01:24;20.90;95.80
31819;DHT22;18384;48.860;9.188;2022-07-29T03:03:54;20.90;95.70
31819;DHT22;18384;48.860;9.188;2022-07-29T03:06:22;20.80;95.80
31819;DHT22;18384;48.860;9.188;2022-07-29T03:08:49;20.80;96.00
31819;DHT22;18384;48.860;9.188;2022-07-29T03:11:17;20.70;96.10
31819;DHT22;18384;48.860;9.188;2022-07-29T03:13:44;20.80;96.00
31819;DHT22;18384;48.860;9.188;2022-07-29T03:16:11;20.80;96.00
31819;DHT22;18384;48.860;9.188;2022-07-29T03:18:38;20.80;95.90
31819;DHT22;18384;48.860;9.188;2022-07-29T03:21:05;20.80;96.00
31819;DHT22;18384;48.860;9.188;2022-07-29T03:23:31;20.70;96.00
31819;DHT22;18384;48.860;9.188;2022-07-29T03:25:57;20.80;96.00
31819;DHT22;18384;48.860;9.188;2022-07-29T03:28:24;20.80;96.00
31819;DHT22;18384;48.860;9.188;2022-07-29T03:30:53;20.80;96.00
31819;DHT22;18384;48.860;9.188;2022-07-29T03:33:19;20.80;95.90
31819;DHT22;18384;48.860;9.188;2022-07-29T03:35:45;20.80;95.70
31819;DHT22;18384;48.860;9.188;2022-07-29T03:38:11;20.80;95.70
31819;DHT22;18384;48.860;9.188;2022-07-29T03:43:32;20.90;95.70
31819;DHT22;18384;48.860;9.188;2022-07-29T03:46:00;20.90;95.80
31819;DHT22;18384;48.860;9.188;2022-07-29T03:48:30;21.00;95.80
31819;DHT22;18384;48.860;9.188;2022-07-29T03:50:59;20.90;95.60
31819;DHT22;18384;48.860;9.188;2022-07-29T03:53:25;21.00;95.50
31819;DHT22;18384;48.860;9.188;2022-07-29T03:55:54;20.90;95.60
31819;DHT22;18384;48.860;9.188;2022-07-29T03:58:26;20.90;95.50
31819;DHT22;18384;48.860;9.188;2022-07-29T04:00:54;21.00;95.60
31819;DHT22;18384;48.860;9.188;2022-07-29T04:03:21;20.90;95.60
31819;DHT22;18384;48.860;9.188;2022-07-29T04:06:05;20.90;95.70
31819;DHT22;18384;48.860;9.188;2022-07-29T04:08:33;20.90;95.80
31819;DHT22;18384;48.860;9.188;2022-07-29T04:11:00;20.90;95.80
31819;DHT22;18384;48.860;9.188;2022-07-29T04:13:27;20.90;95.90
31819;DHT22;18384;48.860;9.188;2022-07-29T04:15:53;20.90;95.90
31819;DHT22;18384;48.860;9.188;2022-07-29T04:18:19;20.90;95.90
31819;DHT22;18384;48.860;9.188;2022-07-29T04:20:45;20.90;95.80
31819;DHT22;18384;48.860;9.188;2022-07-29T04:23:11;21.00;95.90
31819;DHT22;18384;48.860;9.188;2022-07-29T04:25:38;21.00;95.90
31819;DHT22;18384;48.860;9.188;2022-07-29T04:28:06;21.00;96.00
31819;DHT22;18384;48.860;9.188;2022-07-29T04:30:33;20.90;96.00
31819;DHT22;18384;48.860;9.188;2022-07-29T04:33:03;21.00;96.10
31819;DHT22;18384;48.860;9.188;2022-07-29T04:35:32;21.00;96.10
31819;DHT22;18384;48.860;9.188;2022-07-29T04:38:01;21.00;96.10
31819;DHT22;18384;48.860;9.188;2022-07-29T04:40:28;21.00;96.10
31819;DHT22;18384;48.860;9.188;2022-07-29T04:42:54;21.00;96.10
31819;DHT22;18384;48.860;9.188;2022-07-29T04:45:20;21.00;96.00
31819;DHT22;18384;48.860;9.188;2022-07-29T04:47:46;21.10;96.00
31819;DHT22;18384;48.860;9.188;2022-07-29T04:50:13;21.10;96.00
31819;DHT22;18384;48.860;9.188;2022-07-29T04:52:39;21.10;95.90
31819;DHT22;18384;48.860;9.188;2022-07-29T04:55:05;21.20;95.80
31819;DHT22;18384;48.860;9.188;2022-07-29T04:57:32;21.20;95.80
31819;DHT22;18384;48.860;9.188;2022-07-29T04:59:58;21.30;95.80
31819;DHT22;18384;48.860;9.188;2022-07-29T05:02:24;21.30;95.70
31819;DHT22;18384;48.860;9.188;2022-07-29T05:04:50;21.30;95.90
31819;DHT22;18384;48.860;9.188;2022-07-29T05:07:16;21.30;95.70
31819;DHT22;18384;48.860;9.188;2022-07-29T05:09:42;21.40;95.70
31819;DHT22;18384;48.860;9.188;2022-07-29T05:12:09;21.30;95.70
31819;DHT22;18384;48.860;9.188;2022-07-29T05:14:35;21.40;95.80
31819;DHT22;18384;48.860;9.188;2022-07-29T05:17:01;21.40;95.80
31819;DHT22;18384;48.860;9.188;2022-07-29T05:19:27;21.40;95.70
31819;DHT22;18384;48.860;9.188;2022-07-29T05:21:53;21.50;95.70
31819;DHT22;18384;48.860;9.188;2022-07-29T05:24:19;21.50;95.80
31819;DHT22;18384;48.860;9.188;2022-07-29T05:26:45;21.50;95.70
31819;DHT22;18384;48.860;9.188;2022-07-29T05:29:11;21.60;95.50
31819;DHT22;18384;48.860;9.188;2022-07-29T05:31:37;21.70;95.50
31819;DHT22;18384;48.860;9.188;2022-07-29T05:34:04;21.70;95.50
31819;DHT22;18384;48.860;9.188;2022-07-29T05:36:30;21.80;95.60
31819;DHT22;18384;48.860;9.188;2022-07-29T05:38:56;21.90;95.40
31819;DHT22;18384;48.860;9.188;2022-07-29T05:41:23;22.00;95.30
31819;DHT22;18384;48.860;9.188;2022-07-29T05:43:49;22.10;95.10
31819;DHT22;18384;48.860;9.188;2022-07-29T05:46:15;22.10;95.00
31819;DHT22;18384;48.860;9.188;2022-07-29T05:48:41;22.50;94.80
31819;DHT22;18384;48.860;9.188;2022-07-29T05:51:07;22.60;94.50
31819;DHT22;18384;48.860;9.188;2022-07-29T05:53:33;22.60;94.40
31819;DHT22;18384;48.860;9.188;2022-07-29T05:56:03;22.70;94.10
31819;DHT22;18384;48.860;9.188;2022-07-29T05:58:32;22.80;94.10
31819;DHT22;18384;48.860;9.188;2022-07-29T06:00:58;22.70;94.00
31819;DHT22;18384;48.860;9.188;2022-07-29T06:03:26;22.70;94.20
31819;DHT22;18384;48.860;9.188;2022-07-29T06:05:52;22.70;94.30
31819;DHT22;18384;48.860;9.188;2022-07-29T06:08:18;22.80;94.30
31819;DHT22;18384;48.860;9.188;2022-07-29T06:10:44;22.80;94.20
31819;DHT22;18384;48.860;9.188;2022-07-29T06:13:11;23.00;94.10
31819;DHT22;18384;48.860;9.188;2022-07-29T06:15:38;23.20;94.00
31819;DHT22;18384;48.860;9.188;2022-07-29T06:18:03;23.30;93.70
31819;DHT22;18384;48.860;9.188;2022-07-29T06:20:32;23.50;93.30
31819;DHT22;18384;48.860;9.188;2022-07-29T06:22:59;23.60;93.20
31819;DHT22;18384;48.860;9.188;2022-07-29T06:25:25;23.70;92.90
31819;DHT22;18384;48.860;9.188;2022-07-29T06:27:54;23.90;92.70
31819;DHT22;18384;48.860;9.188;2022-07-29T06:30:20;23.90;92.30
31819;DHT22;18384;48.860;9.188;2022-07-29T06:32:46;24.10;92.40
31819;DHT22;18384;48.860;9.188;2022-07-29T06:35:12;24.10;92.20
31819;DHT22;18384;48.860;9.188;2022-07-29T06:37:38;24.20;92.20
31819;DHT22;18384;48.860;9.188;2022-07-29T06:40:05;24.20;92.00
31819;DHT22;18384;48.860;9.188;2022-07-29T06:44:05;24.30;91.70
31819;DHT22;18384;48.860;9.188;2022-07-29T06:46:31;24.40;91.20
31819;DHT22;18384;48.860;9.188;2022-07-29T06:48:57;24.40;91.20
31819;DHT22;18384;48.860;9.188;2022-07-29T06:51:23;24.40;91.30
31819;DHT22;18384;48.860;9.188;2022-07-29T06:53:51;24.30;91.40
31819;DHT22;18384;48.860;9.188;2022-07-29T06:56:17;24.30;91.00
31819;DHT22;18384;48.860;9.188;2022-07-29T06:58:43;24.20;90.90
31819;DHT22;18384;48.860;9.188;2022-07-29T07:01:09;24.20;91.00
31819;DHT22;18384;48.860;9.188;2022-07-29T07:03:35;24.10;91.40
31819;DHT22;18384;48.860;9.188;2022-07-29T07:06:01;24.20;90.80
31819;DHT22;18384;48.860;9.188;2022-07-29T07:08:28;24.20;90.90
31819;DHT22;18384;48.860;9.188;2022-07-29T07:10:54;24.30;91.10
31819;DHT22;18384;48.860;9.188;2022-07-29T07:13:22;24.30;90.70
31819;DHT22;18384;48.860;9.188;2022-07-29T07:15:48;24.40;90.50
31819;DHT22;18384;48.860;9.188;2022-07-29T07:18:16;24.50;90.30
31819;DHT22;18384;48.860;9.188;2022-07-29T07:20:42;24.40;90.40
31819;DHT22;18384;48.860;9.188;2022-07-29T07:23:09;24.50;90.50
31819;DHT22;18384;48.860;9.188;2022-07-29T07:25:35;24.50;89.90
31819;DHT22;18384;48.860;9.188;2022-07-29T07:28:01;24.50;89.50
31819;DHT22;18384;48.860;9.188;2022-07-29T07:30:27;24.40;89.80
31819;DHT22;18384;48.860;9.188;2022-07-29T07:32:54;24.40;90.10
31819;DHT22;18384;48.860;9.188;2022-07-29T07:35:21;24.40;90.00
31819;DHT22;18384;48.860;9.188;2022-07-29T07:37:47;24.40;89.30
31819;DHT22;18384;48.860;9.188;2022-07-29T07:40:13;24.50;89.70
31819;DHT22;18384;48.860;9.188;2022-07-29T07:42:40;24.50;89.00
31819;DHT22;18384;48.860;9.188;2022-07-29T07:45:08;24.60;88.30
31819;DHT22;18384;48.860;9.188;2022-07-29T07:47:36;24.70;89.30
31819;DHT22;18384;48.860;9.188;2022-07-29T07:50:08;24.80;88.70
31819;DHT22;18384;48.860;9.188;2022-07-29T07:52:52;24.90;89.20
31819;DHT22;18384;48.860;9.188;2022-07-29T07:55:20;25.20;88.70
31819;DHT22;18384;48.860;9.188;2022-07-29T07:57:47;25.40;88.00
31819;DHT22;18384;48.860;9.188;2022-07-29T08:00:14;25.60;88.20
31819;DHT22;18384;48.860;9.188;2022-07-29T08:02:41;25.70;87.60
31819;DHT22;18384;48.860;9.188;2022-07-29T08:05:09;25.90;86.50
31819;DHT22;18384;48.860;9.188;2022-07-29T08:07:36;25.90;85.10
31819;DHT22;18384;48.860;9.188;2022-07-29T08:10:02;25.90;85.00
31819;DHT22;18384;48.860;9.188;2022-07-29T08:12:29;26.00;84.60
31819;DHT22;18384;48.860;9.188;2022-07-29T08:14:55;26.10;84.00
31819;DHT22;18384;48.860;9.188;2022-07-29T08:17:21;26.10;83.30
31819;DHT22;18384;48.860;9.188;2022-07-29T08:19:47;26.10;84.90
31819;DHT22;18384;48.860;9.188;2022-07-29T08:22:14;26.20;83.60
31819;DHT22;18384;48.860;9.188;2022-07-29T08:24:40;26.10;84.50
31819;DHT22;18384;48.860;9.188;2022-07-29T08:27:10;26.10;83.10
31819;DHT22;18384;48.860;9.188;2022-07-29T08:29:37;26.00;84.30
31819;DHT22;18384;48.860;9.188;2022-07-29T08:32:03;26.00;82.60
31819;DHT22;18384;48.860;9.188;2022-07-29T08:34:30;26.10;82.60
31819;DHT22;18384;48.860;9.188;2022-07-29T08:36:57;26.10;81.90
31819;DHT22;18384;48.860;9.188;2022-07-29T08:39:24;26.20;82.40
31819;DHT22;18384;48.860;9.188;2022-07-29T08:41:51;26.20;82.20
31819;DHT22;18384;48.860;9.188;2022-07-29T08:44:18;26.30;81.20
31819;DHT22;18384;48.860;9.188;2022-07-29T08:46:45;26.30;78.80
31819;DHT22;18384;48.860;9.188;2022-07-29T08:49:11;26.20;77.40
31819;DHT22;18384;48.860;9.188;2022-07-29T08:51:40;26.10;78.20
31819;DHT22;18384;48.860;9.188;2022-07-29T08:54:08;26.10;77.10
31819;DHT22;18384;48.860;9.188;2022-07-29T08:56:35;26.10;76.90
31819;DHT22;18384;48.860;9.188;2022-07-29T08:59:05;26.10;77.00
31819;DHT22;18384;48.860;9.188;2022-07-29T09:01:33;26.00;78.10
31819;DHT22;18384;48.860;9.188;2022-07-29T09:04:04;26.00;78.40
31819;DHT22;18384;48.860;9.188;2022-07-29T09:06:34;26.00;76.00
31819;DHT22;18384;48.860;9.188;2022-07-29T09:09:02;26.00;76.50
31819;DHT22;18384;48.860;9.188;2022-07-29T09:11:29;26.00;75.60
31819;DHT22;18384;48.860;9.188;2022-07-29T09:13:58;26.00;74.70
31819;DHT22;18384;48.860;9.188;2022-07-29T09:16:24;26.00;75.20
31819;DHT22;18384;48.860;9.188;2022-07-29T09:18:50;26.00;75.40
31819;DHT22;18384;48.860;9.188;2022-07-29T09:21:17;26.00;75.30
31819;DHT22;18384;48.860;9.188;2022-07-29T09:24:07;26.00;75.80
31819;DHT22;18384;48.860;9.188;2022-07-29T09:26:43;26.00;75.30
31819;DHT22;18384;48.860;9.188;2022-07-29T09:29:17;26.00;75.20
31819;DHT22;18384;48.860;9.188;2022-07-29T09:31:46;26.20;77.30
31819;DHT22;18384;48.860;9.188;2022-07-29T09:34:15;26.10;77.20
31819;DHT22;18384;48.860;9.188;2022-07-29T09:36:48;26.30;76.50
31819;DHT22;18384;48.860;9.188;2022-07-29T09:39:28;26.40;76.90
31819;DHT22;18384;48.860;9.188;2022-07-29T09:42:00;26.40;76.40
31819;DHT22;18384;48.860;9.188;2022-07-29T09:44:47;26.30;76.40
31819;DHT22;18384;48.860;9.188;2022-07-29T09:47:15;26.30;75.00
31819;DHT22;18384;48.860;9.188;2022-07-29T09:49:58;26.30;74.80
31819;DHT22;18384;48.860;9.188;2022-07-29T09:52:29;26.40;75.00
31819;DHT22;18384;48.860;9.188;2022-07-29T09:55:09;26.40;75.40
31819;DHT22;18384;48.860;9.188;2022-07-29T09:57:35;26.40;76.90
31819;DHT22;18384;48.860;9.188;2022-07-29T10:00:10;26.50;75.40
31819;DHT22;18384;48.860;9.188;2022-07-29T10:02:39;26.50;76.40
31819;DHT22;18384;48.860;9.188;2022-07-29T10:05:23;26.60;75.50
31819;DHT22;18384;48.860;9.188;2022-07-29T10:07:55;26.60;75.90
31819;DHT22;18384;48.860;9.188;2022-07-29T10:10:33;26.70;75.30
31819;DHT22;18384;48.860;9.188;2022-07-29T10:13:08;26.60;75.10
31819;DHT22;18384;48.860;9.188;2022-07-29T10:15:39;26.50;74.80
31819;DHT22;18384;48.860;9.188;2022-07-29T10:18:07;26.40;74.70
31819;DHT22;18384;48.860;9.188;2022-07-29T10:20:34;26.30;74.70
31819;DHT22;18384;48.860;9.188;2022-07-29T10:23:01;26.20;75.30
31819;DHT22;18384;48.860;9.188;2022-07-29T10:25:27;26.10;74.50
31819;DHT22;18384;48.860;9.188;2022-07-29T10:27:53;26.00;75.10
31819;DHT22;18384;48.860;9.188;2022-07-29T10:30:23;26.00;75.30
31819;DHT22;18384;48.860;9.188;2022-07-29T10:33:18;25.90;75.60
31819;DHT22;18384;48.860;9.188;2022-07-29T10:36:52;25.80;75.70
31819;DHT22;18384;48.860;9.188;2022-07-29T10:40:00;25.70;75.80
31819;DHT22;18384;48.860;9.188;2022-07-29T10:43:20;25.80;76.40
31819;DHT22;18384;48.860;9.188;2022-07-29T10:45:50;25.70;76.40
31819;DHT22;18384;48.860;9.188;2022-07-29T10:48:21;25.70;76.50
31819;DHT22;18384;48.860;9.188;2022-07-29T10:50:59;25.70;76.20
31819;DHT22;18384;48.860;9.188;2022-07-29T10:53:51;25.70;75.90
31819;DHT22;18384;48.860;9.188;2022-07-29T10:56:26;25.60;75.70
31819;DHT22;18384;48.860;9.188;2022-07-29T10:59:23;25.60;75.60
31819;DHT22;18384;48.860;9.188;2022-07-29T11:01:51;25.60;75.90
31819;DHT22;18384;48.860;9.188;2022-07-29T11:05:12;25.60;76.00
31819;DHT22;18384;48.860;9.188;2022-07-29T11:08:29;25.70;75.90
31819;DHT22;18384;48.860;9.188;2022-07-29T11:11:36;25.70;78.10
31819;DHT22;18384;48.860;9.188;2022-07-29T11:14:02;25.70;78.90
31819;DHT22;18384;48.860;9.188;2022-07-29T11:16:59;25.60;79.20
31819;DHT22;18384;48.860;9.188;2022-07-29T11:19:29;25.60;81.50
31819;DHT22;18384;48.860;9.188;2022-07-29T11:21:55;25.70;83.30
31819;DHT22;18384;48.860;9.188;2022-07-29T11:24:29;25.80;84.90
31819;DHT22;18384;48.860;9.188;2022-07-29T11:27:13;25.60;84.40
31819;DHT22;18384;48.860;9.188;2022-07-29T11:29:57;25.60;84.80
31819;DHT22;18384;48.860;9.188;2022-07-29T11:32:36;26.30;85.40
31819;DHT22;18384;48.860;9.188;2022-07-29T11:35:16;25.60;83.50
31819;DHT22;18384;48.860;9.188;2022-07-29T11:38:30;25.60;84.00
31819;DHT22;18384;48.860;9.188;2022-07-29T11:41:23;25.70;83.20
31819;DHT22;18384;48.860;9.188;2022-07-29T11:43:55;25.90;83.60
31819;DHT22;18384;48.860;9.188;2022-07-29T11:46:45;26.00;84.50
31819;DHT22;18384;48.860;9.188;2022-07-29T11:49:23;26.00;84.50
31819;DHT22;18384;48.860;9.188;2022-07-29T11:51:52;26.00;84.60
31819;DHT22;18384;48.860;9.188;2022-07-29T11:54:24;26.20;83.50
31819;DHT22;18384;48.860;9.188;2022-07-29T11:56:54;26.40;83.30
31819;DHT22;18384;48.860;9.188;2022-07-29T11:59:21;26.50;83.70
31819;DHT22;18384;48.860;9.188;2022-07-29T12:01:58;26.50;83.50
31819;DHT22;18384;48.860;9.188;2022-07-29T12:04:25;26.50;83.00
31819;DHT22;18384;48.860;9.188;2022-07-29T12:06:56;26.40;83.00
31819;DHT22;18384;48.860;9.188;2022-07-29T12:09:23;26.70;82.30
31819;DHT22;18384;48.860;9.188;2022-07-29T12:11:56;26.70;82.20
31819;DHT22;18384;48.860;9.188;2022-07-29T12:14:30;26.80;81.80
31819;DHT22;18384;48.860;9.188;2022-07-29T12:16:58;26.90;81.80
31819;DHT22;18384;48.860;9.188;2022-07-29T12:19:26;27.00;81.40
31819;DHT22;18384;48.860;9.188;2022-07-29T12:21:54;27.10;80.80
31819;DHT22;18384;48.860;9.188;2022-07-29T12:24:21;27.10;80.90
31819;DHT22;18384;48.860;9.188;2022-07-29T12:26:53;27.10;80.60
31819;DHT22;18384;48.860;9.188;2022-07-29T12:29:23;27.00;79.60
31819;DHT22;18384;48.860;9.188;2022-07-29T12:31:53;27.00;79.50
31819;DHT22;18384;48.860;9.188;2022-07-29T12:34:22;27.00;79.50
31819;DHT22;18384;48.860;9.188;2022-07-29T12:36:49;26.80;80.20
31819;DHT22;18384;48.860;9.188;2022-07-29T12:39:16;26.80;80.10
31819;DHT22;18384;48.860;9.188;2022-07-29T12:41:43;26.70;80.10
31819;DHT22;18384;48.860;9.188;2022-07-29T12:44:10;26.70;80.50
31819;DHT22;18384;48.860;9.188;2022-07-29T12:46:37;26.70;79.30
31819;DHT22;18384;48.860;9.188;2022-07-29T12:49:03;26.80;78.80
31819;DHT22;18384;48.860;9.188;2022-07-29T12:51:34;26.80;78.90
31819;DHT22;18384;48.860;9.188;2022-07-29T12:54:35;26.70;78.50
31819;DHT22;18384;48.860;9.188;2022-07-29T12:57:01;26.70;79.90
31819;DHT22;18384;48.860;9.188;2022-07-29T12:59:27;26.70;79.20
31819;DHT22;18384;48.860;9.188;2022-07-29T13:01:54;26.80;78.60
31819;DHT22;18384;48.860;9.188;2022-07-29T13:04:31;26.70;78.90
31819;DHT22;18384;48.860;9.188;2022-07-29T13:07:06;26.60;79.10
31819;DHT22;18384;48.860;9.188;2022-07-29T13:09:40;26.70;80.10
31819;DHT22;18384;48.860;9.188;2022-07-29T13:12:10;26.70;80.00
31819;DHT22;18384;48.860;9.188;2022-07-29T13:14:41;26.60;79.70
31819;DHT22;18384;48.860;9.188;2022-07-29T13:17:11;26.60;80.20
31819;DHT22;18384;48.860;9.188;2022-07-29T13:19:47;26.50;79.80
31819;DHT22;18384;48.860;9.188;2022-07-29T13:22:17;26.40;79.40
31819;DHT22;18384;48.860;9.188;2022-07-29T13:24:55;26.30;80.00
31819;DHT22;18384;48.860;9.188;2022-07-29T13:27:29;26.00;80.20
31819;DHT22;18384;48.860;9.188;2022-07-29T13:29:59;26.00;80.10
31819;DHT22;18384;48.860;9.188;2022-07-29T13:32:28;25.80;80.00
31819;DHT22;18384;48.860;9.188;2022-07-29T13:34:56;25.70;81.00
31819;DHT22;18384;48.860;9.188;2022-07-29T13:37:23;25.50;81.20
31819;DHT22;18384;48.860;9.188;2022-07-29T13:39:49;25.50;81.70
31819;DHT22;18384;48.860;9.188;2022-07-29T13:42:15;25.50;82.00
31819;DHT22;18384;48.860;9.188;2022-07-29T13:44:41;25.50;84.50
31819;DHT22;18384;48.860;9.188;2022-07-29T13:47:07;24.90;86.80
31819;DHT22;18384;48.860;9.188;2022-07-29T13:49:34;24.80;90.00
31819;DHT22;18384;48.860;9.188;2022-07-29T13:52:01;25.00;90.40
31819;DHT22;18384;48.860;9.188;2022-07-29T13:54:27;25.20;90.60
31819;DHT22;18384;48.860;9.188;2022-07-29T13:56:54;25.10;90.00
31819;DHT22;18384;48.860;9.188;2022-07-29T13:59:20;25.30;90.60
31819;DHT22;18384;48.860;9.188;2022-07-29T14:01:46;25.40;90.00
31819;DHT22;18384;48.860;9.188;2022-07-29T14:04:12;25.60;91.00
31819;DHT22;18384;48.860;9.188;2022-07-29T14:06:38;25.50;88.90
31819;DHT22;18384;48.860;9.188;2022-07-29T14:09:04;25.60;89.50
31819;DHT22;18384;48.860;9.188;2022-07-29T14:11:35;25.60;87.50
31819;DHT22;18384;48.860;9.188;2022-07-29T14:14:01;25.70;88.70
31819;DHT22;18384;48.860;9.188;2022-07-29T14:16:28;25.70;89.50
31819;DHT22;18384;48.860;9.188;2022-07-29T14:18:54;25.80;88.30
31819;DHT22;18384;48.860;9.188;2022-07-29T14:21:20;26.00;89.10
31819;DHT22;18384;48.860;9.188;2022-07-29T14:23:46;26.10;87.20
31819;DHT22;18384;48.860;9.188;2022-07-29T14:26:13;26.10;86.70
31819;DHT22;18384;48.860;9.188;2022-07-29T14:28:39;26.20;86.00
31819;DHT22;18384;48.860;9.188;2022-07-29T14:31:05;26.40;85.40
31819;DHT22;18384;48.860;9.188;2022-07-29T14:33:31;26.40;85.60
31819;DHT22;18384;48.860;9.188;2022-07-29T14:35:57;26.40;84.90
31819;DHT22;18384;48.860;9.188;2022-07-29T14:38:24;26.40;84.30
31819;DHT22;18384;48.860;9.188;2022-07-29T14:40:50;26.50;84.00
31819;DHT22;18384;48.860;9.188;2022-07-29T14:43:16;26.60;85.30
31819;DHT22;18384;48.860;9.188;2022-07-29T14:45:42;26.70;85.40
31819;DHT22;18384;48.860;9.188;2022-07-29T14:48:08;26.80;85.50
31819;DHT22;18384;48.860;9.188;2022-07-29T14:50:34;26.90;85.10
31819;DHT22;18384;48.860;9.188;2022-07-29T14:53:00;26.90;85.00
31819;DHT22;18384;48.860;9.188;2022-07-29T14:55:27;27.00;83.60
31819;DHT22;18384;48.860;9.188;2022-07-29T14:57:53;27.10;83.00
31819;DHT22;18384;48.860;9.188;2022-07-29T15:00:19;27.10;83.10
31819;DHT22;18384;48.860;9.188;2022-07-29T15:02:47;27.10;84.40
31819;DHT22;18384;48.860;9.188;2022-07-29T15:05:13;27.10;83.00
31819;DHT22;18384;48.860;9.188;2022-07-29T15:07:40;27.20;82.20
31819;DHT22;18384;48.860;9.188;2022-07-29T15:10:06;27.10;81.00
31819;DHT22;18384;48.860;9.188;2022-07-29T15:12:32;27.20;80.80
31819;DHT22;18384;48.860;9.188;2022-07-29T15:14:58;27.20;82.00
31819;DHT22;18384;48.860;9.188;2022-07-29T15:17:25;27.00;83.90
31819;DHT22;18384;48.860;9.188;2022-07-29T15:19:51;26.90;83.50
31819;DHT22;18384;48.860;9.188;2022-07-29T15:22:17;27.10;85.00
31819;DHT22;18384;48.860;9.188;2022-07-29T15:24:43;27.10;84.50
31819;DHT22;18384;48.860;9.188;2022-07-29T15:27:10;27.10;84.80
31819;DHT22;18384;48.860;9.188;2022-07-29T15:29:43;27.00;85.00
31819;DHT22;18384;48.860;9.188;2022-07-29T15:32:10;26.90;84.60
31819;DHT22;18384;48.860;9.188;2022-07-29T15:34:37;27.00;85.30
31819;DHT22;18384;48.860;9.188;2022-07-29T15:37:04;26.70;84.70
31819;DHT22;18384;48.860;9.188;2022-07-29T15:39:31;26.60;84.70
31819;DHT22;18384;48.860;9.188;2022-07-29T15:41:57;26.60;85.70
31819;DHT22;18384;48.860;9.188;2022-07-29T15:44:25;26.60;85.30
31819;DHT22;18384;48.860;9.188;2022-07-29T15:46:52;26.60;87.40
31819;DHT22;18384;48.860;9.188;2022-07-29T15:49:36;26.60;85.60
31819;DHT22;18384;48.860;9.188;2022-07-29T15:52:06;26.50;86.00
31819;DHT22;18384;48.860;9.188;2022-07-29T15:54:35;26.60;85.30
31819;DHT22;18384;48.860;9.188;2022-07-29T15:57:04;26.60;85.40
31819;DHT22;18384;48.860;9.188;2022-07-29T15:59:32;26.60;87.00
31819;DHT22;18384;48.860;9.188;2022-07-29T16:01:58;26.50;87.00
31819;DHT22;18384;48.860;9.188;2022-07-29T16:04:25;26.50;87.10
31819;DHT22;18384;48.860;9.188;2022-07-29T16:06:52;26.50;86.80
31819;DHT22;18384;48.860;9.188;2022-07-29T16:09:18;26.50;87.70
31819;DHT22;18384;48.860;9.188;2022-07-29T16:11:45;26.50;87.20